createdAt,value
2023-02-28T00:01:35.930Z,-0.43
2023-02-28T00:04:03.023Z,-0.53
2023-02-28T00:06:29.715Z,-0.50
2023-02-28T00:08:56.923Z,-0.42
2023-02-28T00:11:26.093Z,-0.61
2023-02-28T00:13:52.709Z,-0.55
2023-02-28T00:16:22.136Z,-0.44
2023-02-28T00:18:49.220Z,-0.47
2023-02-28T00:21:17.224Z,-0.58
2023-02-28T00:23:44.678Z,-0.56
2023-02-28T00:26:13.867Z,-0.48
2023-02-28T00:28:40.477Z,-0.49
2023-02-28T00:31:07.171Z,-0.52
2023-02-28T00:33:36.521Z,-0.67
2023-02-28T00:36:08.435Z,-0.54
2023-02-28T00:38:37.749Z,-0.72
2023-02-28T00:41:08.225Z,-0.95
2023-02-28T00:43:39.436Z,-0.57
2023-02-28T00:46:06.463Z,-0.78
2023-02-28T00:48:33.520Z,-0.87
2023-02-28T00:51:00.219Z,-0.61
2023-02-28T00:53:26.906Z,-0.63
2023-02-28T00:55:57.901Z,-0.52
2023-02-28T00:58:24.492Z,-0.58
2023-02-28T01:00:53.735Z,-0.53
2023-02-28T01:03:24.599Z,-0.62
2023-02-28T01:05:51.905Z,-0.59
2023-02-28T01:08:18.475Z,-0.64
2023-02-28T01:10:45.227Z,-0.62
2023-02-28T01:13:13.124Z,-0.78
2023-02-28T01:15:44.511Z,-0.76
2023-02-28T01:18:11.195Z,-0.87
2023-02-28T01:20:38.711Z,-0.74
2023-02-28T01:23:05.258Z,-0.77
2023-02-28T01:25:31.965Z,-0.84
2023-02-28T01:28:00.971Z,-0.75
2023-02-28T01:30:27.654Z,-0.88
2023-02-28T01:32:54.591Z,-0.71
2023-02-28T01:35:21.577Z,-0.70
2023-02-28T01:37:48.139Z,-0.86
2023-02-28T01:40:15.966Z,-0.64
2023-02-28T01:42:44.829Z,-1.26
2023-02-28T01:45:28.245Z,-0.55
2023-02-28T01:48:08.960Z,-0.50
2023-02-28T01:50:42.559Z,-0.60
2023-02-28T01:53:19.044Z,-0.44
2023-02-28T01:55:49.346Z,-0.40
2023-02-28T01:58:16.823Z,-0.47
2023-02-28T02:00:43.801Z,-0.30
2023-02-28T02:03:17.453Z,-0.39
2023-02-28T02:05:48.494Z,-0.37
2023-02-28T02:08:22.199Z,-0.21
2023-02-28T02:11:02.075Z,-0.14
2023-02-28T02:13:59.645Z,-0.18
2023-02-28T02:16:55.074Z,-0.09
2023-02-28T02:19:43.744Z,-0.06
2023-02-28T02:22:22.789Z,-0.18
2023-02-28T02:25:08.194Z,-0.01
2023-02-28T02:28:04.738Z,-0.01
2023-02-28T02:30:55.717Z,0.02
2023-02-28T02:33:46.803Z,0.06
2023-02-28T02:36:30.954Z,-0.16
2023-02-28T02:39:32.916Z,0.03
2023-02-28T02:42:04.717Z,-0.06
2023-02-28T02:44:45.592Z,0.12
2023-02-28T02:47:18.944Z,0.11
2023-02-28T02:49:53.683Z,0.16
2023-02-28T02:52:25.108Z,-0.22
2023-02-28T02:54:57.830Z,0.08
2023-02-28T02:57:32.703Z,0.04
2023-02-28T03:00:01.526Z,-0.24
2023-02-28T03:02:35.433Z,0.20
2023-02-28T03:05:07.706Z,0.15
2023-02-28T03:07:34.311Z,0.18
2023-02-28T03:10:00.908Z,0.31
2023-02-28T03:12:42.581Z,0.17
2023-02-28T03:15:27.877Z,0.38
2023-02-28T03:17:56.764Z,0.45
2023-02-28T03:20:35.444Z,0.47
2023-02-28T03:23:11.029Z,0.49
2023-02-28T03:26:02.427Z,0.53
2023-02-28T03:28:54.799Z,0.59
2023-02-28T03:31:31.563Z,0.62
2023-02-28T03:34:20.823Z,0.56
2023-02-28T03:36:54.861Z,0.66
2023-02-28T03:39:57.266Z,0.68
2023-02-28T03:42:30.663Z,0.70
2023-02-28T03:45:20.932Z,0.62
2023-02-28T03:47:56.370Z,0.80
2023-02-28T03:50:28.228Z,0.79
2023-02-28T03:53:02.469Z,0.84
2023-02-28T03:55:36.566Z,0.70
2023-02-28T03:58:13.527Z,0.86
2023-02-28T04:00:47.480Z,0.82
2023-02-28T04:03:17.351Z,0.69
2023-02-28T04:05:54.035Z,0.86
2023-02-28T04:08:23.777Z,0.87
2023-02-28T04:11:02.494Z,0.87
2023-02-28T04:13:31.346Z,0.78
2023-02-28T04:15:57.969Z,0.78
2023-02-28T04:18:24.718Z,0.69
2023-02-28T04:20:53.848Z,0.78
2023-02-28T04:23:20.529Z,0.90
2023-02-28T04:25:47.062Z,0.75
2023-02-28T04:28:16.209Z,0.91
2023-02-28T04:30:44.842Z,0.84
2023-02-28T04:33:13.916Z,0.94
2023-02-28T04:35:40.584Z,0.93
2023-02-28T04:38:07.224Z,0.95
2023-02-28T04:40:33.840Z,0.95
2023-02-28T04:43:05.271Z,0.80
2023-02-28T04:45:34.930Z,0.81
2023-02-28T04:48:01.534Z,0.88
2023-02-28T04:50:28.165Z,0.99
2023-02-28T04:52:55.660Z,0.93
2023-02-28T04:55:25.203Z,1.03
2023-02-28T04:57:51.781Z,1.04
2023-02-28T05:00:18.703Z,1.03
2023-02-28T05:02:45.306Z,0.86
2023-02-28T05:05:13.077Z,1.09
2023-02-28T05:07:39.604Z,1.12
2023-02-28T05:10:06.664Z,0.99
2023-02-28T05:12:33.260Z,1.15
2023-02-28T05:14:59.905Z,1.15
2023-02-28T05:17:31.261Z,0.69
2023-02-28T05:20:13.440Z,1.16
2023-02-28T05:22:45.013Z,0.99
2023-02-28T05:25:18.783Z,1.19
2023-02-28T05:27:45.529Z,1.05
2023-02-28T05:30:12.443Z,1.14
2023-02-28T05:32:45.365Z,1.21
2023-02-28T05:35:12.886Z,0.96
2023-02-28T05:37:40.079Z,1.15
2023-02-28T05:40:08.697Z,1.15
2023-02-28T05:42:37.883Z,1.21
2023-02-28T05:45:08.014Z,1.07
2023-02-28T05:47:35.646Z,1.23
2023-02-28T05:50:05.264Z,1.13
2023-02-28T05:52:32.405Z,1.25
2023-02-28T05:54:59.341Z,1.21
2023-02-28T05:57:25.938Z,1.12
2023-02-28T05:59:52.580Z,1.14
2023-02-28T06:02:19.296Z,0.87
2023-02-28T06:04:46.675Z,1.12
2023-02-28T06:07:13.453Z,1.20
2023-02-28T06:09:42.641Z,1.23
2023-02-28T06:12:10.837Z,1.28
2023-02-28T06:14:37.394Z,1.21
2023-02-28T06:17:06.798Z,1.25
2023-02-28T06:19:35.787Z,1.28
2023-02-28T06:22:04.610Z,1.20
2023-02-28T06:24:32.306Z,1.30
2023-02-28T06:27:05.905Z,1.08
2023-02-28T06:29:43.127Z,1.33
2023-02-28T06:32:10.947Z,1.36
2023-02-28T06:34:48.348Z,1.36
2023-02-28T06:37:17.222Z,1.35
2023-02-28T06:39:44.128Z,1.31
2023-02-28T06:42:10.897Z,1.35
2023-02-28T06:44:39.418Z,1.41
2023-02-28T06:47:08.370Z,1.44
2023-02-28T06:49:36.019Z,1.42
2023-02-28T06:52:03.792Z,1.51
2023-02-28T06:54:30.410Z,1.45
2023-02-28T06:56:59.682Z,1.57
2023-02-28T06:59:26.506Z,1.58
2023-02-28T07:01:54.475Z,1.66
2023-02-28T07:04:22.558Z,1.60
2023-02-28T07:06:52.289Z,1.67
2023-02-28T07:09:20.184Z,1.74
2023-02-28T07:11:46.819Z,1.86
2023-02-28T07:14:14.002Z,1.85
2023-02-28T07:16:42.933Z,2.00
2023-02-28T07:19:09.519Z,2.16
2023-02-28T07:21:36.091Z,2.11
2023-02-28T07:24:05.335Z,2.23
2023-02-28T07:26:35.220Z,2.47
2023-02-28T07:29:08.798Z,2.68
2023-02-28T07:31:55.307Z,2.89
2023-02-28T07:34:36.276Z,2.99
2023-02-28T07:37:05.276Z,3.14
2023-02-28T07:39:32.988Z,3.12
2023-02-28T07:42:00.710Z,3.14
2023-02-28T07:44:27.854Z,3.20
2023-02-28T07:46:57.247Z,3.20
2023-02-28T07:49:24.824Z,3.32
2023-02-28T07:51:52.551Z,3.31
2023-02-28T07:54:21.861Z,3.28
2023-02-28T07:56:48.570Z,3.21
2023-02-28T07:59:15.436Z,3.33
2023-02-28T08:01:52.685Z,3.32
2023-02-28T08:04:20.150Z,3.46
2023-02-28T08:06:48.867Z,3.50
2023-02-28T08:09:17.224Z,3.45
2023-02-28T08:11:46.245Z,3.23
2023-02-28T08:14:12.881Z,3.16
2023-02-28T08:16:39.830Z,3.27
2023-02-28T08:19:06.472Z,3.64
2023-02-28T08:21:37.444Z,3.73
2023-02-28T08:24:07.957Z,3.72
2023-02-28T08:26:35.884Z,3.78
2023-02-28T08:29:03.159Z,3.77
2023-02-28T08:31:34.286Z,4.03
2023-02-28T08:34:01.102Z,4.01
2023-02-28T08:36:29.860Z,4.06
2023-02-28T08:38:57.820Z,3.89
2023-02-28T08:41:24.464Z,3.92
2023-02-28T08:43:54.619Z,3.71
2023-02-28T08:46:21.952Z,3.57
2023-02-28T08:48:48.509Z,3.47
2023-02-28T08:51:20.186Z,3.59
2023-02-28T08:54:09.750Z,3.44
2023-02-28T08:56:38.022Z,3.39
2023-02-28T08:59:13.320Z,3.37
2023-02-28T09:01:43.003Z,3.35
2023-02-28T09:04:19.853Z,3.42
2023-02-28T09:06:51.912Z,3.39
2023-02-28T09:09:22.883Z,3.37
2023-02-28T09:11:50.283Z,3.93
2023-02-28T09:14:21.081Z,5.31
2023-02-28T09:16:48.995Z,5.98
2023-02-28T09:19:15.889Z,6.35
2023-02-28T09:21:43.067Z,6.49
2023-02-28T09:24:15.725Z,6.36
2023-02-28T09:26:43.100Z,6.50
2023-02-28T09:29:18.534Z,6.73
2023-02-28T09:31:45.545Z,6.64
2023-02-28T09:34:14.705Z,6.81
2023-02-28T09:36:45.614Z,6.86
2023-02-28T09:39:13.794Z,7.22
2023-02-28T09:41:51.436Z,7.02
2023-02-28T09:44:25.956Z,6.61
2023-02-28T09:46:57.114Z,6.70
2023-02-28T09:49:36.170Z,6.57
2023-02-28T09:52:05.183Z,6.42
2023-02-28T09:54:33.828Z,5.96
2023-02-28T09:57:10.904Z,6.30
2023-02-28T10:00:08.310Z,6.31
2023-02-28T10:02:52.506Z,6.28
2023-02-28T10:05:23.896Z,6.32
2023-02-28T10:07:50.474Z,6.20
2023-02-28T10:10:29.601Z,5.90
2023-02-28T10:13:00.219Z,5.84
2023-02-28T10:15:31.403Z,5.81
2023-02-28T10:18:09.168Z,5.88
2023-02-28T10:20:42.138Z,6.07
2023-02-28T10:23:11.939Z,5.98
2023-02-28T10:25:39.634Z,5.85
2023-02-28T10:28:14.886Z,6.03
2023-02-28T10:30:46.283Z,6.06
2023-02-28T10:33:20.007Z,6.23
2023-02-28T10:35:51.840Z,6.35
2023-02-28T10:38:34.203Z,6.22
2023-02-28T10:41:08.167Z,6.08
2023-02-28T10:43:39.632Z,6.23
2023-02-28T10:46:15.622Z,6.36
2023-02-28T10:49:07.073Z,6.35
2023-02-28T10:51:44.346Z,6.44
2023-02-28T10:54:22.826Z,6.47
2023-02-28T10:57:17.828Z,6.47
2023-02-28T10:59:45.577Z,6.39
2023-02-28T11:02:30.457Z,6.57
2023-02-28T11:04:57.267Z,6.61
2023-02-28T11:07:27.799Z,6.63
2023-02-28T11:09:59.292Z,6.13
2023-02-28T11:12:46.903Z,6.53
2023-02-28T11:15:30.641Z,6.62
2023-02-28T11:18:09.822Z,6.62
2023-02-28T11:20:39.680Z,6.78
2023-02-28T11:23:12.861Z,6.65
2023-02-28T11:25:40.189Z,6.68
2023-02-28T11:28:25.351Z,6.67
2023-02-28T11:31:04.177Z,6.88
2023-02-28T11:33:48.494Z,6.90
2023-02-28T11:36:25.741Z,6.69
2023-02-28T11:39:13.420Z,6.71
2023-02-28T11:42:16.613Z,6.87
2023-02-28T11:44:45.956Z,6.93
2023-02-28T11:47:27.743Z,6.95
2023-02-28T11:50:23.745Z,6.85
2023-02-28T11:53:04.056Z,6.94
2023-02-28T11:55:53.057Z,6.98
2023-02-28T11:58:34.807Z,6.84
2023-02-28T12:01:11.061Z,6.92
2023-02-28T12:03:49.950Z,6.98
2023-02-28T12:06:20.004Z,7.05
2023-02-28T12:08:58.670Z,7.05
2023-02-28T12:11:57.074Z,6.95
2023-02-28T12:14:55.937Z,6.91
2023-02-28T12:17:25.493Z,6.70
2023-02-28T12:20:06.503Z,6.94
2023-02-28T12:22:36.517Z,7.13
2023-02-28T12:25:42.414Z,7.14
2023-02-28T12:28:16.249Z,7.14
2023-02-28T12:30:57.983Z,7.16
2023-02-28T12:33:35.480Z,7.10
2023-02-28T12:36:11.404Z,7.28
2023-02-28T12:39:01.235Z,7.37
2023-02-28T12:41:38.121Z,7.25
2023-02-28T12:44:12.500Z,7.20
2023-02-28T12:46:56.994Z,7.18
2023-02-28T12:49:43.381Z,7.23
2023-02-28T12:52:27.119Z,7.39
2023-02-28T12:55:10.917Z,7.39
2023-02-28T12:57:41.653Z,7.38
2023-02-28T13:00:20.725Z,7.21
2023-02-28T13:02:57.686Z,7.18
2023-02-28T13:06:03.204Z,7.15
2023-02-28T13:09:06.033Z,7.09
2023-02-28T13:11:42.342Z,7.04
2023-02-28T13:14:28.676Z,7.29
2023-02-28T13:17:03.345Z,7.25
2023-02-28T13:19:49.870Z,7.24
2023-02-28T13:22:45.559Z,7.22
2023-02-28T13:25:26.621Z,7.25
2023-02-28T13:28:01.926Z,7.17
2023-02-28T13:30:57.054Z,7.20
2023-02-28T13:33:29.939Z,7.14
2023-02-28T13:36:31.767Z,6.89
2023-02-28T13:39:05.339Z,7.01
2023-02-28T13:41:32.530Z,7.14
2023-02-28T13:44:07.481Z,7.06
2023-02-28T13:46:38.333Z,7.01
2023-02-28T13:49:21.790Z,6.93
2023-02-28T13:51:52.109Z,6.87
2023-02-28T13:54:47.158Z,6.82
2023-02-28T13:57:16.257Z,6.82
2023-02-28T14:00:21.054Z,6.75
2023-02-28T14:03:13.240Z,6.73
2023-02-28T14:05:45.799Z,6.68
2023-02-28T14:08:19.522Z,6.64
2023-02-28T14:10:52.996Z,6.63
2023-02-28T14:13:46.365Z,6.63
2023-02-28T14:16:22.261Z,6.54
2023-02-28T14:19:12.447Z,6.59
2023-02-28T14:22:07.582Z,6.44
2023-02-28T14:24:53.276Z,6.54
2023-02-28T14:27:42.744Z,6.50
2023-02-28T14:30:41.233Z,6.65
2023-02-28T14:36:19.567Z,6.52
2023-02-28T14:38:56.628Z,6.51
2023-02-28T14:41:39.341Z,6.53
2023-02-28T14:44:24.224Z,6.55
2023-02-28T14:47:08.417Z,6.42
2023-02-28T14:49:45.240Z,6.55
2023-02-28T14:52:33.523Z,6.47
2023-02-28T14:55:05.212Z,6.47
2023-02-28T14:57:52.762Z,6.49
2023-02-28T15:00:25.941Z,6.45
2023-02-28T15:02:55.270Z,6.45
2023-02-28T15:05:39.816Z,6.40
2023-02-28T15:08:21.472Z,6.37
2023-02-28T15:11:00.305Z,6.35
2023-02-28T15:13:46.181Z,6.33
2023-02-28T15:19:24.229Z,6.30
2023-02-28T15:22:06.505Z,6.28
2023-02-28T15:24:36.127Z,6.27
2023-02-28T15:27:12.144Z,6.20
2023-02-28T15:29:47.316Z,6.18
2023-02-28T15:32:37.004Z,6.29
2023-02-28T15:35:43.242Z,6.23
2023-02-28T15:38:29.554Z,6.22
2023-02-28T15:40:59.740Z,6.00
2023-02-28T15:43:37.508Z,6.14
2023-02-28T15:46:05.757Z,6.10
2023-02-28T15:48:37.143Z,6.07
2023-02-28T15:51:03.800Z,6.08
2023-02-28T15:53:34.680Z,6.04
2023-02-28T15:56:09.460Z,5.92
2023-02-28T15:58:38.376Z,6.09
2023-02-28T16:01:10.590Z,6.04
2023-02-28T16:03:52.891Z,5.99
2023-02-28T16:06:42.010Z,5.94
2023-02-28T16:09:19.526Z,5.87
2023-02-28T16:11:52.969Z,5.83
2023-02-28T16:14:31.689Z,5.69
2023-02-28T16:17:11.703Z,5.75
2023-02-28T16:19:39.859Z,5.70
2023-02-28T16:22:11.171Z,5.66
2023-02-28T16:24:42.054Z,5.61
2023-02-28T16:27:33.263Z,5.57
2023-02-28T16:30:08.156Z,5.32
2023-02-28T16:32:39.180Z,5.46
2023-02-28T16:35:25.242Z,5.44
2023-02-28T16:37:56.085Z,5.35
2023-02-28T16:40:26.568Z,5.34
2023-02-28T16:42:59.562Z,5.26
2023-02-28T16:45:31.692Z,5.21
2023-02-28T16:47:59.532Z,5.17
2023-02-28T16:50:31.446Z,5.10
2023-02-28T16:52:59.357Z,5.04
2023-02-28T16:55:46.480Z,5.01
2023-02-28T16:58:32.238Z,4.94
2023-02-28T17:01:01.395Z,4.77
2023-02-28T17:03:33.685Z,4.78
2023-02-28T17:06:01.946Z,4.70
2023-02-28T17:08:52.818Z,4.68
2023-02-28T17:11:23.491Z,4.57
2023-02-28T17:13:55.163Z,4.49
2023-02-28T17:16:35.957Z,4.43
2023-02-28T17:19:06.090Z,4.37
2023-02-28T17:21:34.440Z,4.30
2023-02-28T17:24:22.246Z,4.12
2023-02-28T17:26:53.330Z,4.05
2023-02-28T17:29:22.844Z,4.08
2023-02-28T17:31:49.551Z,3.92
2023-02-28T17:34:19.342Z,3.92
2023-02-28T17:36:49.712Z,3.94
2023-02-28T17:39:24.872Z,3.92
2023-02-28T17:41:56.137Z,3.84
2023-02-28T17:44:24.916Z,3.81
2023-02-28T17:46:52.878Z,3.65
2023-02-28T17:49:19.917Z,3.63
2023-02-28T17:51:47.379Z,3.98
2023-02-28T17:54:15.079Z,4.16
2023-02-28T17:56:44.031Z,3.55
2023-02-28T17:59:11.468Z,3.67
2023-02-28T18:01:38.170Z,3.51
2023-02-28T18:04:04.982Z,3.48
2023-02-28T18:06:52.312Z,3.41
2023-02-28T18:09:23.447Z,3.26
2023-02-28T18:11:55.147Z,3.28
2023-02-28T18:14:24.532Z,3.22
2023-02-28T18:16:51.731Z,3.16
2023-02-28T18:19:18.831Z,3.02
2023-02-28T18:21:50.609Z,2.98
2023-02-28T18:24:19.256Z,3.01
2023-02-28T18:26:46.171Z,2.90
2023-02-28T18:29:25.052Z,2.82
2023-02-28T18:31:53.024Z,2.79
2023-02-28T18:34:21.206Z,2.73
2023-02-28T18:36:48.826Z,2.58
2023-02-28T18:39:20.743Z,2.62
2023-02-28T18:41:47.525Z,2.50
2023-02-28T18:44:20.317Z,2.47
2023-02-28T18:46:49.048Z,2.36
2023-02-28T18:49:15.849Z,2.34
2023-02-28T18:51:46.623Z,2.27
2023-02-28T18:54:14.543Z,2.18
2023-02-28T18:56:41.294Z,2.07
2023-02-28T18:59:15.221Z,2.08
2023-02-28T19:01:44.568Z,1.95
2023-02-28T19:04:13.937Z,2.44
2023-02-28T19:06:42.089Z,2.09
2023-02-28T19:09:09.716Z,1.80
2023-02-28T19:11:36.891Z,1.94
2023-02-28T19:14:03.555Z,2.31
2023-02-28T19:16:32.825Z,2.01
2023-02-28T19:19:01.861Z,1.99
2023-02-28T19:21:28.512Z,1.75
2023-02-28T19:23:55.153Z,1.77
2023-02-28T19:26:25.162Z,1.70
2023-02-28T19:28:51.761Z,1.54
2023-02-28T19:31:24.190Z,1.63
2023-02-28T19:33:53.587Z,1.58
2023-02-28T19:36:21.065Z,1.53
2023-02-28T19:38:48.194Z,1.48
2023-02-28T19:41:16.650Z,1.37
2023-02-28T19:43:43.572Z,1.35
2023-02-28T19:46:11.922Z,1.28
2023-02-28T19:48:42.498Z,1.13
2023-02-28T19:51:13.477Z,1.15
2023-02-28T19:53:41.684Z,1.22
2023-02-28T19:56:09.383Z,1.20
2023-02-28T19:58:39.333Z,1.05
2023-02-28T20:01:14.901Z,1.13
2023-02-28T20:03:42.201Z,1.09
2023-02-28T20:06:13.696Z,0.96
2023-02-28T20:08:40.589Z,0.93
2023-02-28T20:11:10.438Z,0.95
2023-02-28T20:13:37.356Z,0.82
2023-02-28T20:16:07.100Z,0.88
2023-02-28T20:18:36.648Z,0.73
2023-02-28T20:21:08.557Z,0.72
2023-02-28T20:23:35.496Z,0.68
2023-02-28T20:26:02.294Z,0.60
2023-02-28T20:28:28.915Z,0.62
2023-02-28T20:30:55.926Z,0.52
2023-02-28T20:33:22.881Z,0.67
2023-02-28T20:35:52.672Z,0.67
2023-02-28T20:38:21.915Z,0.59
2023-02-28T20:40:48.571Z,0.46
2023-02-28T20:43:17.563Z,0.35
2023-02-28T20:45:51.736Z,0.38
2023-02-28T20:48:20.648Z,0.28
2023-02-28T20:50:52.117Z,0.41
2023-02-28T20:53:19.285Z,0.42
2023-02-28T20:56:00.564Z,0.36
2023-02-28T20:58:34.126Z,0.30
2023-02-28T21:01:26.479Z,0.31
2023-02-28T21:03:58.772Z,0.29
2023-02-28T21:06:33.130Z,-0.21
2023-02-28T21:09:07.950Z,0.16
2023-02-28T21:11:39.396Z,0.13
2023-02-28T21:14:11.369Z,0.18
2023-02-28T21:16:40.522Z,-0.04
2023-02-28T21:19:07.242Z,0.02
2023-02-28T21:21:43.827Z,-0.33
2023-02-28T21:24:14.426Z,-0.04
2023-02-28T21:26:42.141Z,-0.03
2023-02-28T21:29:14.844Z,-0.11
2023-02-28T21:31:41.570Z,-0.09
2023-02-28T21:34:11.454Z,-0.13
2023-02-28T21:36:41.077Z,-0.16
2023-02-28T21:39:19.293Z,-0.21
2023-02-28T21:41:48.290Z,-0.20
2023-02-28T21:44:24.057Z,-0.29
2023-02-28T21:46:54.927Z,-0.23
2023-02-28T21:49:25.439Z,-0.38
2023-02-28T21:51:52.142Z,-0.60
2023-02-28T21:54:18.815Z,-0.27
2023-02-28T21:56:50.490Z,-0.44
2023-02-28T21:59:17.974Z,-0.34
2023-02-28T22:01:45.396Z,-0.41
2023-02-28T22:04:23.553Z,-0.30
2023-02-28T22:06:57.265Z,-0.34
2023-02-28T22:09:28.916Z,-0.40
2023-02-28T22:11:58.428Z,-0.57
2023-02-28T22:14:25.152Z,-0.45
2023-02-28T22:16:56.930Z,-0.71
2023-02-28T22:19:24.539Z,-0.57
2023-02-28T22:21:53.713Z,-0.56
2023-02-28T22:24:24.637Z,-0.69
2023-02-28T22:26:52.226Z,-0.96
2023-02-28T22:29:19.041Z,-0.98
2023-02-28T22:31:45.865Z,-0.60
2023-02-28T22:34:13.057Z,-0.84
2023-02-28T22:36:43.595Z,-0.63
2023-02-28T22:39:13.599Z,-0.58
2023-02-28T22:41:40.624Z,-0.65
2023-02-28T22:44:07.535Z,-0.61
2023-02-28T22:46:37.488Z,-0.58
2023-02-28T22:49:07.830Z,-0.79
2023-02-28T22:51:35.131Z,-0.59
2023-02-28T22:54:02.260Z,-0.53
2023-02-28T22:56:30.785Z,-0.59
2023-02-28T22:58:59.886Z,-0.59
2023-02-28T23:01:29.667Z,-0.64
2023-02-28T23:03:57.157Z,-0.74
2023-02-28T23:06:25.254Z,-0.84
2023-02-28T23:08:56.056Z,-0.72
2023-02-28T23:11:34.052Z,-0.78
2023-02-28T23:14:01.140Z,-0.77
2023-02-28T23:16:45.065Z,-0.78
2023-02-28T23:19:22.038Z,-0.77
2023-02-28T23:21:51.149Z,-0.76
2023-02-28T23:24:21.326Z,-0.74
2023-02-28T23:26:51.153Z,-0.95
2023-02-28T23:29:22.893Z,-1.14
2023-02-28T23:31:50.520Z,-0.95
2023-02-28T23:34:24.816Z,-0.84
2023-02-28T23:36:52.058Z,-0.96
2023-02-28T23:39:19.690Z,-0.95
2023-02-28T23:41:46.816Z,-0.96
2023-02-28T23:44:16.881Z,-1.53
2023-02-28T23:46:49.325Z,-1.03
2023-02-28T23:49:19.969Z,-1.14
2023-02-28T23:51:49.395Z,-1.25
2023-02-28T23:54:17.443Z,-1.23
2023-02-28T23:56:44.772Z,-1.13
2023-02-28T23:59:14.260Z,-1.09
